sensor_id;sensor_type;location;lat;lon;timestamp;temperature;humidity
41168;DHT22;26906;45.658;9.272;2023-12-04T06:36:49;5.10;99.90
41168;DHT22;26906;45.658;9.272;2023-12-04T06:39:15;5.10;99.90
41168;DHT22;26906;45.658;9.272;2023-12-04T06:41:43;5.20;99.90
41168;DHT22;26906;45.658;9.272;2023-12-04T06:44:10;5.10;99.90
41168;DHT22;26906;45.658;9.272;2023-12-04T06:46:39;5.10;99.90
41168;DHT22;26906;45.658;9.272;2023-12-04T06:49:06;5.10;99.90
41168;DHT22;26906;45.658;9.272;2023-12-04T06:51:34;5.10;99.90
41168;DHT22;26906;45.658;9.272;2023-12-04T06:54:00;5.10;99.90
41168;DHT22;26906;45.658;9.272;2023-12-04T06:56:26;5.10;99.90
41168;DHT22;26906;45.658;9.272;2023-12-04T06:58:51;5.10;99.90
41168;DHT22;26906;45.658;9.272;2023-12-04T07:01:17;5.10;99.90
41168;DHT22;26906;45.658;9.272;2023-12-04T07:03:43;5.10;99.90
41168;DHT22;26906;45.658;9.272;2023-12-04T07:06:08;5.10;99.90
41168;DHT22;26906;45.658;9.272;2023-12-04T07:08:34;5.10;99.90
41168;DHT22;26906;45.658;9.272;2023-12-04T07:11:00;5.00;99.90
41168;DHT22;26906;45.658;9.272;2023-12-04T07:13:26;5.00;99.90
41168;DHT22;26906;45.658;9.272;2023-12-04T07:15:52;5.00;99.90
41168;DHT22;26906;45.658;9.272;2023-12-04T07:18:17;5.00;99.90
41168;DHT22;26906;45.658;9.272;2023-12-04T07:20:43;5.00;99.90
41168;DHT22;26906;45.658;9.272;2023-12-04T07:23:08;5.00;99.90
41168;DHT22;26906;45.658;9.272;2023-12-04T07:25:34;5.00;99.90
41168;DHT22;26906;45.658;9.272;2023-12-04T07:28:01;5.10;99.90
41168;DHT22;26906;45.658;9.272;2023-12-04T07:30:26;5.00;99.90
41168;DHT22;26906;45.658;9.272;2023-12-04T07:32:52;5.10;99.90
41168;DHT22;26906;45.658;9.272;2023-12-04T07:35:19;5.00;99.90
41168;DHT22;26906;45.658;9.272;2023-12-04T07:37:44;5.00;99.90
41168;DHT22;26906;45.658;9.272;2023-12-04T07:40:10;5.00;99.90
41168;DHT22;26906;45.658;9.272;2023-12-04T07:42:37;5.00;99.90
41168;DHT22;26906;45.658;9.272;2023-12-04T07:45:03;5.00;99.90
41168;DHT22;26906;45.658;9.272;2023-12-04T07:47:29;5.10;99.90
41168;DHT22;26906;45.658;9.272;2023-12-04T07:49:54;5.20;99.90
41168;DHT22;26906;45.658;9.272;2023-12-04T07:52:20;5.20;99.90
41168;DHT22;26906;45.658;9.272;2023-12-04T07:54:46;5.20;99.90
41168;DHT22;26906;45.658;9.272;2023-12-04T07:57:11;5.20;99.90
41168;DHT22;26906;45.658;9.272;2023-12-04T07:59:37;5.30;99.90
41168;DHT22;26906;45.658;9.272;2023-12-04T08:02:03;5.30;99.90
41168;DHT22;26906;45.658;9.272;2023-12-04T08:04:29;5.30;99.90
41168;DHT22;26906;45.658;9.272;2023-12-04T08:06:55;5.30;99.90
41168;DHT22;26906;45.658;9.272;2023-12-04T08:09:20;5.10;99.90
41168;DHT22;26906;45.658;9.272;2023-12-04T08:11:46;5.20;99.90
41168;DHT22;26906;45.658;9.272;2023-12-04T08:14:12;5.30;99.90
41168;DHT22;26906;45.658;9.272;2023-12-04T08:16:37;5.20;99.90
41168;DHT22;26906;45.658;9.272;2023-12-04T08:19:03;5.40;99.90
41168;DHT22;26906;45.658;9.272;2023-12-04T08:21:29;5.30;99.90
41168;DHT22;26906;45.658;9.272;2023-12-04T08:23:54;5.30;99.90
41168;DHT22;26906;45.658;9.272;2023-12-04T08:26:24;5.30;99.90
41168;DHT22;26906;45.658;9.272;2023-12-04T08:28:53;5.30;99.90
41168;DHT22;26906;45.658;9.272;2023-12-04T08:31:19;5.40;99.90
41168;DHT22;26906;45.658;9.272;2023-12-04T08:33:44;5.50;99.90
41168;DHT22;26906;45.658;9.272;2023-12-04T08:36:11;5.40;99.90
41168;DHT22;26906;45.658;9.272;2023-12-04T08:38:37;5.50;99.90
41168;DHT22;26906;45.658;9.272;2023-12-04T08:41:03;5.70;99.90
41168;DHT22;26906;45.658;9.272;2023-12-04T08:43:29;5.40;99.90
41168;DHT22;26906;45.658;9.272;2023-12-04T08:45:55;5.40;99.90
41168;DHT22;26906;45.658;9.272;2023-12-04T08:48:21;5.50;99.90
41168;DHT22;26906;45.658;9.272;2023-12-04T08:50:47;5.70;99.90
41168;DHT22;26906;45.658;9.272;2023-12-04T08:53:14;5.70;99.90
41168;DHT22;26906;45.658;9.272;2023-12-04T08:55:39;5.70;99.90
41168;DHT22;26906;45.658;9.272;2023-12-04T08:58:05;5.80;99.90
41168;DHT22;26906;45.658;9.272;2023-12-04T09:00:32;5.90;99.90
41168;DHT22;26906;45.658;9.272;2023-12-04T09:02:58;6.00;99.90
41168;DHT22;26906;45.658;9.272;2023-12-04T09:05:23;6.00;99.90
41168;DHT22;26906;45.658;9.272;2023-12-04T09:07:49;6.00;99.90
41168;DHT22;26906;45.658;9.272;2023-12-04T09:10:15;6.20;99.90
41168;DHT22;26906;45.658;9.272;2023-12-04T09:12:40;6.20;99.90
41168;DHT22;26906;45.658;9.272;2023-12-04T09:15:06;6.10;99.90
41168;DHT22;26906;45.658;9.272;2023-12-04T09:17:32;6.00;99.90
41168;DHT22;26906;45.658;9.272;2023-12-04T09:19:58;6.00;99.90
41168;DHT22;26906;45.658;9.272;2023-12-04T09:22:24;6.10;99.90
41168;DHT22;26906;45.658;9.272;2023-12-04T09:24:50;6.10;99.90
41168;DHT22;26906;45.658;9.272;2023-12-04T09:27:16;6.20;99.90
41168;DHT22;26906;45.658;9.272;2023-12-04T09:29:42;6.20;99.90
41168;DHT22;26906;45.658;9.272;2023-12-04T09:32:09;5.90;99.90
41168;DHT22;26906;45.658;9.272;2023-12-04T09:34:35;6.00;99.90
41168;DHT22;26906;45.658;9.272;2023-12-04T09:37:01;6.20;99.90
41168;DHT22;26906;45.658;9.272;2023-12-04T09:39:28;6.30;99.90
41168;DHT22;26906;45.658;9.272;2023-12-04T09:41:55;6.30;99.90
41168;DHT22;26906;45.658;9.272;2023-12-04T09:44:22;6.30;99.90
41168;DHT22;26906;45.658;9.272;2023-12-04T09:46:51;6.20;99.90
41168;DHT22;26906;45.658;9.272;2023-12-04T09:49:17;6.10;99.90
41168;DHT22;26906;45.658;9.272;2023-12-04T09:51:44;6.20;99.90
41168;DHT22;26906;45.658;9.272;2023-12-04T09:54:09;6.20;99.90
41168;DHT22;26906;45.658;9.272;2023-12-04T09:56:37;6.40;99.90
41168;DHT22;26906;45.658;9.272;2023-12-04T09:59:06;6.40;99.90
41168;DHT22;26906;45.658;9.272;2023-12-04T10:01:33;6.40;99.90
41168;DHT22;26906;45.658;9.272;2023-12-04T10:04:01;6.40;99.90
41168;DHT22;26906;45.658;9.272;2023-12-04T10:06:27;6.50;99.90
41168;DHT22;26906;45.658;9.272;2023-12-04T10:08:56;6.50;99.90
41168;DHT22;26906;45.658;9.272;2023-12-04T10:11:25;6.50;99.90
41168;DHT22;26906;45.658;9.272;2023-12-04T10:13:54;6.60;99.90
41168;DHT22;26906;45.658;9.272;2023-12-04T10:16:36;6.60;99.90
41168;DHT22;26906;45.658;9.272;2023-12-04T10:19:21;6.60;99.90
41168;DHT22;26906;45.658;9.272;2023-12-04T10:21:56;6.70;99.90
41168;DHT22;26906;45.658;9.272;2023-12-04T10:24:28;6.80;99.90
41168;DHT22;26906;45.658;9.272;2023-12-04T10:26:54;6.80;99.90
41168;DHT22;26906;45.658;9.272;2023-12-04T10:29:20;7.00;99.90
41168;DHT22;26906;45.658;9.272;2023-12-04T10:31:45;6.90;99.90
41168;DHT22;26906;45.658;9.272;2023-12-04T10:34:13;7.00;99.90
41168;DHT22;26906;45.658;9.272;2023-12-04T10:36:40;7.10;99.90
41168;DHT22;26906;45.658;9.272;2023-12-04T10:39:05;7.00;99.90
41168;DHT22;26906;45.658;9.272;2023-12-04T10:41:31;7.10;99.90
41168;DHT22;26906;45.658;9.272;2023-12-04T10:43:57;7.10;99.90
41168;DHT22;26906;45.658;9.272;2023-12-04T10:46:27;7.10;99.90
41168;DHT22;26906;45.658;9.272;2023-12-04T10:48:53;7.10;99.90
41168;DHT22;26906;45.658;9.272;2023-12-04T10:51:19;7.00;99.90
41168;DHT22;26906;45.658;9.272;2023-12-04T10:53:47;7.10;99.90
41168;DHT22;26906;45.658;9.272;2023-12-04T10:56:31;7.10;99.90
41168;DHT22;26906;45.658;9.272;2023-12-04T10:59:00;7.00;99.90
41168;DHT22;26906;45.658;9.272;2023-12-04T11:01:27;6.90;99.90
41168;DHT22;26906;45.658;9.272;2023-12-04T11:03:56;6.90;99.90
41168;DHT22;26906;45.658;9.272;2023-12-04T11:06:24;6.80;99.90
41168;DHT22;26906;45.658;9.272;2023-12-04T11:08:53;6.80;99.90
41168;DHT22;26906;45.658;9.272;2023-12-04T11:11:30;6.90;99.90
41168;DHT22;26906;45.658;9.272;2023-12-04T11:14:01;6.90;99.90
41168;DHT22;26906;45.658;9.272;2023-12-04T11:16:47;6.80;99.90
41168;DHT22;26906;45.658;9.272;2023-12-04T11:19:35;6.70;99.90
41168;DHT22;26906;45.658;9.272;2023-12-04T11:22:04;6.60;99.90
41168;DHT22;26906;45.658;9.272;2023-12-04T11:24:32;6.70;99.90
41168;DHT22;26906;45.658;9.272;2023-12-04T11:26:59;6.70;99.90
41168;DHT22;26906;45.658;9.272;2023-12-04T11:29:26;6.80;99.90
41168;DHT22;26906;45.658;9.272;2023-12-04T11:31:52;6.90;99.90
41168;DHT22;26906;45.658;9.272;2023-12-04T11:34:17;6.90;99.90
41168;DHT22;26906;45.658;9.272;2023-12-04T11:36:44;7.00;99.90
41168;DHT22;26906;45.658;9.272;2023-12-04T11:39:10;7.00;99.90
41168;DHT22;26906;45.658;9.272;2023-12-04T11:41:36;7.10;99.90
41168;DHT22;26906;45.658;9.272;2023-12-04T11:44:03;7.20;99.90
41168;DHT22;26906;45.658;9.272;2023-12-04T11:46:29;7.10;99.90
41168;DHT22;26906;45.658;9.272;2023-12-04T11:51:54;7.20;99.90
41168;DHT22;26906;45.658;9.272;2023-12-04T11:54:22;7.20;99.90
41168;DHT22;26906;45.658;9.272;2023-12-04T11:59:22;7.20;99.90
41168;DHT22;26906;45.658;9.272;2023-12-04T12:01:50;7.20;99.90
41168;DHT22;26906;45.658;9.272;2023-12-04T12:04:18;7.20;99.90
41168;DHT22;26906;45.658;9.272;2023-12-04T12:06:44;7.10;99.90
41168;DHT22;26906;45.658;9.272;2023-12-04T12:09:10;7.10;99.90
41168;DHT22;26906;45.658;9.272;2023-12-04T12:11:37;7.00;99.90
41168;DHT22;26906;45.658;9.272;2023-12-04T12:14:02;7.00;99.90
41168;DHT22;26906;45.658;9.272;2023-12-04T12:16:33;6.90;99.90
41168;DHT22;26906;45.658;9.272;2023-12-04T12:19:01;6.90;99.90
41168;DHT22;26906;45.658;9.272;2023-12-04T12:21:27;6.80;99.90
41168;DHT22;26906;45.658;9.272;2023-12-04T12:23:54;6.70;99.90
41168;DHT22;26906;45.658;9.272;2023-12-04T12:26:20;6.80;99.90
41168;DHT22;26906;45.658;9.272;2023-12-04T12:28:45;6.90;99.90
41168;DHT22;26906;45.658;9.272;2023-12-04T12:31:12;6.90;99.90
41168;DHT22;26906;45.658;9.272;2023-12-04T12:33:38;6.90;99.90
41168;DHT22;26906;45.658;9.272;2023-12-04T12:36:04;7.00;99.90
41168;DHT22;26906;45.658;9.272;2023-12-04T12:38:30;7.10;99.90
41168;DHT22;26906;45.658;9.272;2023-12-04T12:41:06;7.10;99.90
41168;DHT22;26906;45.658;9.272;2023-12-04T12:43:33;7.10;99.90
41168;DHT22;26906;45.658;9.272;2023-12-04T12:45:59;7.20;99.90
41168;DHT22;26906;45.658;9.272;2023-12-04T12:48:27;7.20;99.90
41168;DHT22;26906;45.658;9.272;2023-12-04T12:50:54;7.20;99.90
41168;DHT22;26906;45.658;9.272;2023-12-04T12:53:20;7.20;99.90
41168;DHT22;26906;45.658;9.272;2023-12-04T12:55:47;7.30;99.90
41168;DHT22;26906;45.658;9.272;2023-12-04T12:58:14;7.30;99.90
41168;DHT22;26906;45.658;9.272;2023-12-04T13:00:40;7.30;99.90
41168;DHT22;26906;45.658;9.272;2023-12-04T13:03:17;7.30;99.90
41168;DHT22;26906;45.658;9.272;2023-12-04T13:05:43;7.30;99.90
41168;DHT22;26906;45.658;9.272;2023-12-04T13:08:09;7.30;99.90
41168;DHT22;26906;45.658;9.272;2023-12-04T13:10:37;7.30;99.90
41168;DHT22;26906;45.658;9.272;2023-12-04T13:13:03;7.30;99.90
41168;DHT22;26906;45.658;9.272;2023-12-04T13:15:28;7.40;99.90
41168;DHT22;26906;45.658;9.272;2023-12-04T13:17:54;7.30;99.90
41168;DHT22;26906;45.658;9.272;2023-12-04T13:20:20;7.30;99.90
41168;DHT22;26906;45.658;9.272;2023-12-04T13:22:46;7.30;99.90
41168;DHT22;26906;45.658;9.272;2023-12-04T13:25:11;7.30;99.90
41168;DHT22;26906;45.658;9.272;2023-12-04T13:27:37;7.40;99.90
41168;DHT22;26906;45.658;9.272;2023-12-04T13:30:06;7.40;99.90
41168;DHT22;26906;45.658;9.272;2023-12-04T13:32:34;7.40;99.90
41168;DHT22;26906;45.658;9.272;2023-12-04T13:35:03;7.40;99.90
41168;DHT22;26906;45.658;9.272;2023-12-04T13:37:30;7.40;99.90
41168;DHT22;26906;45.658;9.272;2023-12-04T13:39:57;7.60;99.90
41168;DHT22;26906;45.658;9.272;2023-12-04T13:42:32;7.70;99.90
41168;DHT22;26906;45.658;9.272;2023-12-04T13:45:16;7.70;99.90
41168;DHT22;26906;45.658;9.272;2023-12-04T13:47:42;7.70;99.90
41168;DHT22;26906;45.658;9.272;2023-12-04T13:50:09;7.70;99.90
41168;DHT22;26906;45.658;9.272;2023-12-04T13:52:35;7.70;99.90
41168;DHT22;26906;45.658;9.272;2023-12-04T13:55:02;7.60;99.90
41168;DHT22;26906;45.658;9.272;2023-12-04T13:57:35;7.60;99.90
41168;DHT22;26906;45.658;9.272;2023-12-04T14:00:10;7.60;99.90
41168;DHT22;26906;45.658;9.272;2023-12-04T14:02:35;7.50;99.90
41168;DHT22;26906;45.658;9.272;2023-12-04T14:05:03;7.50;99.90
41168;DHT22;26906;45.658;9.272;2023-12-04T14:07:29;7.50;99.90
41168;DHT22;26906;45.658;9.272;2023-12-04T14:09:54;7.50;99.90
41168;DHT22;26906;45.658;9.272;2023-12-04T14:12:21;7.30;99.90
41168;DHT22;26906;45.658;9.272;2023-12-04T14:14:46;7.30;99.90
41168;DHT22;26906;45.658;9.272;2023-12-04T14:17:13;7.30;99.90
41168;DHT22;26906;45.658;9.272;2023-12-04T14:19:39;7.30;99.90
41168;DHT22;26906;45.658;9.272;2023-12-04T14:22:06;7.30;99.90
41168;DHT22;26906;45.658;9.272;2023-12-04T14:24:31;7.20;99.90
41168;DHT22;26906;45.658;9.272;2023-12-04T14:26:58;7.20;99.90
41168;DHT22;26906;45.658;9.272;2023-12-04T14:29:24;7.10;99.90
41168;DHT22;26906;45.658;9.272;2023-12-04T14:31:49;7.10;99.90
41168;DHT22;26906;45.658;9.272;2023-12-04T14:34:15;7.10;99.90
41168;DHT22;26906;45.658;9.272;2023-12-04T14:36:41;7.10;99.90
41168;DHT22;26906;45.658;9.272;2023-12-04T14:39:07;7.10;99.90
41168;DHT22;26906;45.658;9.272;2023-12-04T14:41:36;7.10;99.90
41168;DHT22;26906;45.658;9.272;2023-12-04T14:44:02;7.10;99.90
41168;DHT22;26906;45.658;9.272;2023-12-04T14:46:28;7.00;99.90
41168;DHT22;26906;45.658;9.272;2023-12-04T14:48:54;6.80;99.90
41168;DHT22;26906;45.658;9.272;2023-12-04T14:51:19;6.80;99.90
41168;DHT22;26906;45.658;9.272;2023-12-04T14:53:45;6.80;99.90
41168;DHT22;26906;45.658;9.272;2023-12-04T14:56:29;6.80;99.90
41168;DHT22;26906;45.658;9.272;2023-12-04T14:59:13;6.80;99.90
41168;DHT22;26906;45.658;9.272;2023-12-04T15:01:58;6.70;99.90
41168;DHT22;26906;45.658;9.272;2023-12-04T15:04:42;6.80;99.90
41168;DHT22;26906;45.658;9.272;2023-12-04T15:07:07;6.70;99.90
41168;DHT22;26906;45.658;9.272;2023-12-04T15:09:56;6.70;99.90
41168;DHT22;26906;45.658;9.272;2023-12-04T15:12:31;6.60;99.90
41168;DHT22;26906;45.658;9.272;2023-12-04T15:15:15;6.60;99.90
41168;DHT22;26906;45.658;9.272;2023-12-04T15:17:56;6.60;99.90
41168;DHT22;26906;45.658;9.272;2023-12-04T15:20:42;6.60;99.90
41168;DHT22;26906;45.658;9.272;2023-12-04T15:23:09;6.60;99.90
41168;DHT22;26906;45.658;9.272;2023-12-04T15:25:34;6.60;99.90
41168;DHT22;26906;45.658;9.272;2023-12-04T15:28:00;6.60;99.90
41168;DHT22;26906;45.658;9.272;2023-12-04T15:30:29;6.60;99.90
41168;DHT22;26906;45.658;9.272;2023-12-04T15:32:55;6.60;99.90
41168;DHT22;26906;45.658;9.272;2023-12-04T15:35:21;6.40;99.90
41168;DHT22;26906;45.658;9.272;2023-12-04T15:37:46;6.30;99.90
41168;DHT22;26906;45.658;9.272;2023-12-04T15:40:12;6.40;99.90
41168;DHT22;26906;45.658;9.272;2023-12-04T15:42:38;6.40;99.90
41168;DHT22;26906;45.658;9.272;2023-12-04T15:45:04;6.40;99.90
41168;DHT22;26906;45.658;9.272;2023-12-04T15:47:31;6.30;99.90
41168;DHT22;26906;45.658;9.272;2023-12-04T15:49:56;6.30;99.90
41168;DHT22;26906;45.658;9.272;2023-12-04T15:52:24;6.30;99.90
41168;DHT22;26906;45.658;9.272;2023-12-04T15:54:52;6.30;99.90
41168;DHT22;26906;45.658;9.272;2023-12-04T15:57:17;6.40;99.90
41168;DHT22;26906;45.658;9.272;2023-12-04T15:59:43;6.30;99.90
41168;DHT22;26906;45.658;9.272;2023-12-04T16:02:11;6.30;99.90
41168;DHT22;26906;45.658;9.272;2023-12-04T16:04:37;6.30;99.90
41168;DHT22;26906;45.658;9.272;2023-12-04T16:07:03;6.20;99.90
41168;DHT22;26906;45.658;9.272;2023-12-04T16:09:28;6.10;99.90
41168;DHT22;26906;45.658;9.272;2023-12-04T16:11:54;6.20;99.90
41168;DHT22;26906;45.658;9.272;2023-12-04T16:14:20;6.20;99.90
41168;DHT22;26906;45.658;9.272;2023-12-04T16:16:45;6.30;99.90
41168;DHT22;26906;45.658;9.272;2023-12-04T16:19:11;6.20;99.90
41168;DHT22;26906;45.658;9.272;2023-12-04T16:21:37;6.20;99.90
41168;DHT22;26906;45.658;9.272;2023-12-04T16:24:03;6.20;99.90
41168;DHT22;26906;45.658;9.272;2023-12-04T16:26:29;6.20;99.90
41168;DHT22;26906;45.658;9.272;2023-12-04T16:29:00;6.20;99.90
41168;DHT22;26906;45.658;9.272;2023-12-04T16:31:26;6.30;99.90
41168;DHT22;26906;45.658;9.272;2023-12-04T16:33:52;6.30;99.90
41168;DHT22;26906;45.658;9.272;2023-12-04T16:36:18;6.20;99.90
41168;DHT22;26906;45.658;9.272;2023-12-04T16:38:43;6.20;99.90
41168;DHT22;26906;45.658;9.272;2023-12-04T16:41:13;6.20;99.90
41168;DHT22;26906;45.658;9.272;2023-12-04T16:43:40;6.10;99.90
41168;DHT22;26906;45.658;9.272;2023-12-04T16:46:10;6.10;99.90
41168;DHT22;26906;45.658;9.272;2023-12-04T16:48:36;6.00;99.90
41168;DHT22;26906;45.658;9.272;2023-12-04T16:51:03;6.10;99.90
41168;DHT22;26906;45.658;9.272;2023-12-04T16:53:28;6.10;99.90
41168;DHT22;26906;45.658;9.272;2023-12-04T16:55:56;6.00;99.90
41168;DHT22;26906;45.658;9.272;2023-12-04T16:58:22;6.10;99.90
41168;DHT22;26906;45.658;9.272;2023-12-04T17:00:47;6.10;99.90
41168;DHT22;26906;45.658;9.272;2023-12-04T17:03:13;6.00;99.90
41168;DHT22;26906;45.658;9.272;2023-12-04T17:05:39;5.90;99.90
41168;DHT22;26906;45.658;9.272;2023-12-04T17:08:06;6.00;99.90
41168;DHT22;26906;45.658;9.272;2023-12-04T17:10:31;5.90;99.90
41168;DHT22;26906;45.658;9.272;2023-12-04T17:12:57;5.90;99.90
41168;DHT22;26906;45.658;9.272;2023-12-04T17:15:23;5.80;99.90
41168;DHT22;26906;45.658;9.272;2023-12-04T17:17:49;5.80;99.90
41168;DHT22;26906;45.658;9.272;2023-12-04T17:20:14;5.90;99.90
41168;DHT22;26906;45.658;9.272;2023-12-04T17:22:40;5.80;99.90
41168;DHT22;26906;45.658;9.272;2023-12-04T17:25:09;5.80;99.90
41168;DHT22;26906;45.658;9.272;2023-12-04T17:27:35;5.70;99.90
41168;DHT22;26906;45.658;9.272;2023-12-04T17:30:01;5.70;99.90
41168;DHT22;26906;45.658;9.272;2023-12-04T17:32:27;5.70;99.90
41168;DHT22;26906;45.658;9.272;2023-12-04T17:34:52;5.70;99.90
41168;DHT22;26906;45.658;9.272;2023-12-04T17:37:18;5.70;99.90
41168;DHT22;26906;45.658;9.272;2023-12-04T17:39:44;5.70;99.90
41168;DHT22;26906;45.658;9.272;2023-12-04T17:42:09;5.70;99.90
41168;DHT22;26906;45.658;9.272;2023-12-04T17:44:35;5.70;99.90
41168;DHT22;26906;45.658;9.272;2023-12-04T17:47:03;5.70;99.90
41168;DHT22;26906;45.658;9.272;2023-12-04T17:49:28;5.60;99.90
41168;DHT22;26906;45.658;9.272;2023-12-04T17:51:54;5.60;99.90
41168;DHT22;26906;45.658;9.272;2023-12-04T17:54:20;5.60;99.90
41168;DHT22;26906;45.658;9.272;2023-12-04T17:56:45;6.10;99.90
41168;DHT22;26906;45.658;9.272;2023-12-04T17:59:11;5.60;99.90
41168;DHT22;26906;45.658;9.272;2023-12-04T18:01:37;5.50;99.90
41168;DHT22;26906;45.658;9.272;2023-12-04T18:04:03;5.50;99.90
41168;DHT22;26906;45.658;9.272;2023-12-04T18:06:30;5.50;99.90
41168;DHT22;26906;45.658;9.272;2023-12-04T18:08:57;5.60;99.90
41168;DHT22;26906;45.658;9.272;2023-12-04T18:11:23;5.60;99.90
41168;DHT22;26906;45.658;9.272;2023-12-04T18:13:49;5.60;99.90
41168;DHT22;26906;45.658;9.272;2023-12-04T18:16:15;5.50;99.90
41168;DHT22;26906;45.658;9.272;2023-12-04T18:18:41;5.50;99.90
41168;DHT22;26906;45.658;9.272;2023-12-04T18:21:07;5.50;99.90
41168;DHT22;26906;45.658;9.272;2023-12-04T18:23:33;5.60;99.90
41168;DHT22;26906;45.658;9.272;2023-12-04T18:25:59;5.60;99.90
41168;DHT22;26906;45.658;9.272;2023-12-04T18:28:26;5.60;99.90
41168;DHT22;26906;45.658;9.272;2023-12-04T18:30:52;5.50;99.90
41168;DHT22;26906;45.658;9.272;2023-12-04T18:33:18;5.50;99.90
41168;DHT22;26906;45.658;9.272;2023-12-04T18:35:44;5.40;99.90
41168;DHT22;26906;45.658;9.272;2023-12-04T18:38:17;5.30;99.90
41168;DHT22;26906;45.658;9.272;2023-12-04T18:40:45;5.30;99.90
41168;DHT22;26906;45.658;9.272;2023-12-04T18:43:11;5.30;99.90
41168;DHT22;26906;45.658;9.272;2023-12-04T18:45:36;5.30;99.90
41168;DHT22;26906;45.658;9.272;2023-12-04T18:48:07;5.40;99.90
41168;DHT22;26906;45.658;9.272;2023-12-04T18:50:33;5.50;99.90
41168;DHT22;26906;45.658;9.272;2023-12-04T18:53:00;5.40;99.90
41168;DHT22;26906;45.658;9.272;2023-12-04T18:55:26;5.40;99.90
41168;DHT22;26906;45.658;9.272;2023-12-04T18:57:52;5.40;99.90
41168;DHT22;26906;45.658;9.272;2023-12-04T19:00:17;5.40;99.90
41168;DHT22;26906;45.658;9.272;2023-12-04T19:02:43;5.40;99.90
41168;DHT22;26906;45.658;9.272;2023-12-04T19:05:09;5.60;99.90
41168;DHT22;26906;45.658;9.272;2023-12-04T19:07:35;5.60;99.90
41168;DHT22;26906;45.658;9.272;2023-12-04T19:10:00;5.50;99.90
41168;DHT22;26906;45.658;9.272;2023-12-04T19:12:26;5.50;99.90
41168;DHT22;26906;45.658;9.272;2023-12-04T19:14:53;5.50;99.90
41168;DHT22;26906;45.658;9.272;2023-12-04T19:17:19;5.40;99.90
41168;DHT22;26906;45.658;9.272;2023-12-04T19:19:45;5.50;99.90
41168;DHT22;26906;45.658;9.272;2023-12-04T19:22:11;5.40;99.90
41168;DHT22;26906;45.658;9.272;2023-12-04T19:24:36;5.40;99.90
41168;DHT22;26906;45.658;9.272;2023-12-04T19:27:02;5.40;99.90
41168;DHT22;26906;45.658;9.272;2023-12-04T19:29:31;5.40;99.90
41168;DHT22;26906;45.658;9.272;2023-12-04T19:31:57;5.40;99.90
41168;DHT22;26906;45.658;9.272;2023-12-04T19:34:24;5.40;99.90
41168;DHT22;26906;45.658;9.272;2023-12-04T19:36:51;5.40;99.90
41168;DHT22;26906;45.658;9.272;2023-12-04T19:39:17;5.40;99.90
41168;DHT22;26906;45.658;9.272;2023-12-04T19:41:43;5.40;99.90
41168;DHT22;26906;45.658;9.272;2023-12-04T19:44:08;5.40;99.90
41168;DHT22;26906;45.658;9.272;2023-12-04T19:46:41;5.30;99.90
41168;DHT22;26906;45.658;9.272;2023-12-04T19:49:07;5.30;99.90
41168;DHT22;26906;45.658;9.272;2023-12-04T19:51:33;5.40;99.90
41168;DHT22;26906;45.658;9.272;2023-12-04T19:53:58;5.40;99.90
41168;DHT22;26906;45.658;9.272;2023-12-04T19:56:24;5.30;99.90
41168;DHT22;26906;45.658;9.272;2023-12-04T19:58:50;5.30;99.90
41168;DHT22;26906;45.658;9.272;2023-12-04T20:01:26;5.30;99.90
41168;DHT22;26906;45.658;9.272;2023-12-04T20:03:52;5.50;99.90
41168;DHT22;26906;45.658;9.272;2023-12-04T20:06:18;5.50;99.90
41168;DHT22;26906;45.658;9.272;2023-12-04T20:08:44;5.40;99.90
41168;DHT22;26906;45.658;9.272;2023-12-04T20:11:09;5.40;99.90
41168;DHT22;26906;45.658;9.272;2023-12-04T20:13:35;5.40;99.90
41168;DHT22;26906;45.658;9.272;2023-12-04T20:16:01;5.40;99.90
41168;DHT22;26906;45.658;9.272;2023-12-04T20:18:26;5.40;99.90
41168;DHT22;26906;45.658;9.272;2023-12-04T20:20:52;5.40;99.90
41168;DHT22;26906;45.658;9.272;2023-12-04T20:23:18;5.50;99.90
41168;DHT22;26906;45.658;9.272;2023-12-04T20:25:44;5.50;99.90
41168;DHT22;26906;45.658;9.272;2023-12-04T20:28:09;5.40;99.90
41168;DHT22;26906;45.658;9.272;2023-12-04T20:30:36;5.40;99.90
41168;DHT22;26906;45.658;9.272;2023-12-04T20:33:03;5.50;99.90
41168;DHT22;26906;45.658;9.272;2023-12-04T20:35:30;5.50;99.90
41168;DHT22;26906;45.658;9.272;2023-12-04T20:37:58;5.50;99.90
41168;DHT22;26906;45.658;9.272;2023-12-04T20:40:24;5.50;99.90
41168;DHT22;26906;45.658;9.272;2023-12-04T20:42:54;5.50;99.90
41168;DHT22;26906;45.658;9.272;2023-12-04T20:45:25;5.50;99.90
41168;DHT22;26906;45.658;9.272;2023-12-04T20:47:53;5.60;99.90
41168;DHT22;26906;45.658;9.272;2023-12-04T20:50:18;5.70;99.90
41168;DHT22;26906;45.658;9.272;2023-12-04T20:52:48;5.60;99.90
41168;DHT22;26906;45.658;9.272;2023-12-04T20:55:14;5.50;99.90
41168;DHT22;26906;45.658;9.272;2023-12-04T20:57:39;5.40;99.90
41168;DHT22;26906;45.658;9.272;2023-12-04T21:00:06;5.40;99.90
41168;DHT22;26906;45.658;9.272;2023-12-04T21:02:35;5.40;99.90
41168;DHT22;26906;45.658;9.272;2023-12-04T21:05:01;5.30;99.90
41168;DHT22;26906;45.658;9.272;2023-12-04T21:07:27;5.30;99.90
41168;DHT22;26906;45.658;9.272;2023-12-04T21:09:52;5.30;99.90
41168;DHT22;26906;45.658;9.272;2023-12-04T21:12:18;5.30;99.90
41168;DHT22;26906;45.658;9.272;2023-12-04T21:14:44;5.50;99.90
41168;DHT22;26906;45.658;9.272;2023-12-04T21:17:10;5.50;99.90
41168;DHT22;26906;45.658;9.272;2023-12-04T21:19:36;5.40;99.90
